Latest Weather Observations for Maatsuyker Island

IDT60801

Issued at 3:41 pm EDT Thursday 28 January 2021 (issued every 10 minutes, with the page automatically refreshed every 10 minutes)

About weather observations | Map of weather stations | Latest weather observations for TAS | Other Formats
Station Details ID: 094041 Name: MAATSUYKER ISLAND LIGHTHOUSE Lat: -43.66 Lon: 146.27 Height: 146.5 m
Data from the previous 72 hours. | See also: Recent months at Maatsuyker Island
Date/Time
EDT
Temp
°C
App
Temp
°C
Dew
Point
°C
Rel
Hum
%
Delta-T
°C
Wind Press
QNH
hPa
Press
MSL
hPa
Rain since
9am
mm
Dir  Spd
km/h
Gust
km/h
Spd
kts
Gust
kts
28/03:30pm 15.7 - - - - WNW 19 28 10 15 1024.6 1024.7 0.0
28/03:00pm 15.7 - - - - WNW 19 32 10 17 1024.9 1024.8 0.0
28/02:30pm 15.8 - - - - WNW 19 41 10 22 1025.5 - 0.0
28/02:00pm 15.2 - - - - WNW 17 33 9 18 1026.0 - 0.0
28/01:30pm 15.3 - - - - WNW 17 32 9 17 1026.2 - 0.0
28/01:00pm 15.2 - - - - WNW 15 33 8 18 1026.6 - 0.0
28/12:30pm 15.2 - - - - WNW 15 24 8 13 1027.1 - 0.0
28/12:00pm 15.2 - - - - WNW 15 26 8 14 1027.3 1027.3 0.0
28/11:30am 14.6 - - - - WNW 15 33 8 18 1027.5 - 0.0
28/11:00am 13.9 - - - - WNW 15 24 8 13 1027.4 - 0.0
28/10:30am 13.4 - - - - WNW 17 32 9 17 1027.7 - 0.0
28/10:00am 13.0 - - - - W 17 32 9 17 1027.7 - 0.0
28/09:30am 12.4 - - - - W 17 32 9 17 1027.8 - 0.0
28/09:00am 12.1 - - - - W 19 30 10 16 1028.1 1028.1 0.2
28/08:30am 11.6 - - - - W 17 28 9 15 1027.8 - 0.2
28/08:00am 11.3 - - - - W 17 35 9 19 1027.7 - 0.2
28/07:30am 11.2 - - - - W 15 30 8 16 1027.8 - 0.2
28/07:00am 11.0 - - - - W 13 32 7 17 1027.7 - 0.2
28/06:30am 10.9 - - - - WNW 15 30 8 16 1027.5 - 0.2
28/06:00am 10.7 - - - - NW 13 35 7 19 1027.4 1027.4 0.2
28/05:30am 10.8 - - - - NE 20 33 11 18 1027.3 - 0.2
28/04:30am 10.8 - - - - NNW 13 22 7 12 1027.0 - 0.2
28/04:00am 10.9 - - - - NW 11 17 6 9 1027.2 - 0.2
28/03:30am 10.9 - - - - NW 17 33 9 18 1027.0 - 0.2
28/03:00am 10.8 - - - - W 13 22 7 12 1026.9 1026.9 0.2
28/02:30am 10.9 - - - - NE 19 35 10 19 1027.1 - 0.2
28/02:00am 10.8 - - - - WNW 11 30 6 16 1026.9 - 0.2
28/01:30am 10.9 - - - - WNW 11 24 6 13 1027.0 - 0.2
28/01:00am 11.1 - - - - WNW 11 20 6 11 1027.1 - 0.2
28/12:30am 11.2 - - - - WNW 11 22 6 12 1027.1 - 0.2
28/12:00am 11.2 - - - - NNW 9 22 5 12 1027.0 1027.0 0.2
 
Date/Time
EDT
Temp
°C
App
Temp
°C
Dew
Point
°C
Rel
Hum
%
Delta-T
°C
Wind Press
QNH
hPa
Press
MSL
hPa
Rain since
9am
mm
Dir  Spd
km/h
Gust
km/h
Spd
kts
Gust
kts
27/11:30pm 11.0 - - - - NW 9 24 5 13 1026.9 - 0.2
27/11:00pm 10.6 - - - - NW 7 13 4 7 1027.0 - 0.2
27/10:30pm 10.6 - - - - NW 9 15 5 8 1026.7 - 0.2
27/10:00pm 10.7 - - - - NW 7 13 4 7 1026.8 - 0.2
27/09:30pm 10.4 - - - - NW 7 13 4 7 1026.8 - 0.2
27/09:00pm 10.8 - - - - NNW 7 11 4 6 1026.4 1026.4 0.2
27/08:30pm 11.8 - - - - N 7 13 4 7 1026.2 - 0.2
27/08:00pm 12.5 - - - - NNW 6 11 3 6 1025.9 - 0.2
27/07:30pm 13.1 - - - - N 6 9 3 5 1025.7 - 0.2
27/07:00pm 13.8 - - - - NNW 6 9 3 5 1025.5 - 0.2
27/06:30pm 14.8 - - - - N 9 17 5 9 1024.9 - 0.2
27/06:00pm 14.7 - - - - N 9 15 5 8 1024.6 1024.5 0.2
27/05:30pm 14.6 - - - - ENE 15 30 8 16 1024.5 - 0.2
27/05:00pm 15.3 - - - - NNE 11 20 6 11 1024.1 - 0.2
27/04:30pm 15.6 - - - - NNE 11 22 6 12 1024.1 - 0.2
27/04:00pm 15.3 - - - - NNE 13 20 7 11 1024.0 - 0.2
27/03:30pm 16.0 - - - - ESE 20 32 11 17 1023.9 - 0.2
27/03:00pm 14.5 - - - - SE 26 30 14 16 1023.8 1023.7 0.2
27/02:30pm 13.8 - - - - SE 24 30 13 16 1023.7 - 0.2
27/02:00pm 12.7 - - - - SSE 26 33 14 18 1023.6 - 0.2
27/01:30pm 12.7 - - - - SSE 22 28 12 15 1023.5 - 0.2
27/01:00pm 13.6 - - - - SSE 26 32 14 17 1023.2 - 0.2
27/12:30pm 13.4 - - - - ESE 15 30 8 16 1022.8 - 0.0
27/12:00pm 12.5 - - - - SE 26 35 14 19 1022.6 1022.6 0.0
27/11:30am 12.3 - - - - SSE 35 43 19 23 1022.1 - 0.0
27/11:00am 12.1 - - - - SSE 33 39 18 21 1021.7 - 0.0
27/10:30am 11.5 - - - - SE 26 33 14 18 1021.3 - 0.0
27/10:00am 11.5 - - - - SSE 44 50 24 27 1020.4 - 0.0
27/09:30am 11.4 - - - - SSE 41 46 22 25 1020.2 - 0.0
27/09:00am 10.9 - - - - SSE 39 46 21 25 1019.9 1019.8 0.6
27/08:30am 10.7 - - - - S 37 44 20 24 1019.8 - 0.6
27/08:00am 10.6 - - - - S 39 43 21 23 1019.4 - 0.6
27/07:30am 10.4 - - - - S 37 46 20 25 1018.6 - 0.6
27/07:00am 10.3 - - - - SSE 41 48 22 26 1018.1 - 0.6
27/06:30am 10.2 - - - - S 41 50 22 27 1017.3 - 0.6
27/06:00am 9.9 - - - - S 30 41 16 22 1016.9 1016.8 0.6
27/05:30am 10.1 - - - - S 44 56 24 30 1016.0 - 0.6
27/05:00am 9.9 - - - - S 46 54 25 29 1015.3 - 0.6
27/04:37am 9.7 - - - - S 35 54 19 29 1014.9 - 0.6
27/04:30am 9.4 - - - - S 30 35 16 19 1015.1 - 0.6
27/04:00am 9.1 - - - - S 41 46 22 25 1014.9 - 0.6
27/03:47am 9.3 - - - - S 44 50 24 27 1014.9 - 0.6
27/03:46am 9.2 - - - - SW 32 50 17 27 1014.9 - 0.6
27/03:41am 9.6 - - - - SW 28 39 15 21 1014.9 - 0.6
27/03:30am 9.4 - - - - S 39 44 21 24 1014.6 - 0.6
27/03:00am 9.5 - - - - S 43 54 23 29 1014.0 1013.9 0.6
27/02:55am 9.4 - - - - S 35 43 19 23 1014.1 - 0.6
27/02:30am 9.0 - - - - SW 19 24 10 13 1014.1 - 0.4
27/02:00am 9.1 - - - - SSW 35 46 19 25 1013.8 - 0.4
27/01:30am 10.2 - - - - S 39 50 21 27 1013.3 - 0.0
27/01:05am 10.2 - - - - S 37 46 20 25 1013.1 - 0.0
27/01:00am 10.3 - - - - W 30 35 16 19 1013.2 - 0.0
27/12:30am 10.7 - - - - SSW 32 41 17 22 1012.8 - 0.0
27/12:00am 10.6 - - - - SW 32 43 17 23 1012.4 1012.3 0.0
 
Date/Time
EDT
Temp
°C
App
Temp
°C
Dew
Point
°C
Rel
Hum
%
Delta-T
°C
Wind Press
QNH
hPa
Press
MSL
hPa
Rain since
9am
mm
Dir  Spd
km/h
Gust
km/h
Spd
kts
Gust
kts
26/11:58pm 10.7 - - - - SW 28 41 15 22 1012.3 - 0.0
26/11:46pm 10.6 - - - - W 37 44 20 24 1012.1 - 0.0
26/11:35pm 10.6 - - - - SSW 35 44 19 24 1011.9 - 0.0
26/11:30pm 10.6 - - - - WSW 37 52 20 28 1011.8 - 0.0
26/11:00pm 10.7 - - - - SW 39 50 21 27 1011.3 - 0.0
26/10:52pm 10.6 - - - - SW 46 50 25 27 1011.3 - 0.0
26/10:41pm 10.0 - - - - W 35 39 19 21 1011.2 - 0.0
26/10:33pm 10.4 - - - - SW 43 54 23 29 1011.1 - 0.0
26/10:30pm 10.5 - - - - W 37 50 20 27 1010.9 - 0.0
26/10:17pm 10.3 - - - - W 37 44 20 24 1010.8 - 0.0
26/10:06pm 10.1 - - - - SW 41 50 22 27 1010.6 - 0.0
26/10:00pm 9.7 - - - - W 33 44 18 24 1010.4 - 0.0
26/09:53pm 10.2 - - - - W 32 43 17 23 1010.3 - 0.0
26/09:39pm 10.2 - - - - SW 41 52 22 28 1010.0 - 0.0
26/09:30pm 10.1 - - - - W 39 50 21 27 1009.8 - 0.0
26/09:05pm 10.5 - - - - W 41 59 22 32 1009.1 - 0.0
26/09:00pm 10.8 - - - - W 44 57 24 31 1008.9 1008.8 0.0
26/08:30pm 11.1 - - - - W 41 59 22 32 1008.1 - 0.0
26/08:00pm 11.0 - - - - W 48 63 26 34 1007.4 - 0.0
26/07:30pm 10.8 - - - - W 48 63 26 34 1006.6 - 0.0
26/07:11pm 10.4 - - - - W 57 76 31 41 1005.9 - 0.0
26/07:00pm 11.2 - - - - WNW 67 78 36 42 1005.3 - 0.0
26/06:30pm 11.0 - - - - WNW 65 76 35 41 1004.8 - 0.0
26/06:27pm 10.9 - - - - WNW 69 87 37 47 1004.8 - 0.0
26/06:00pm 11.0 - - - - WNW 76 91 41 49 1003.8 1003.7 0.0
26/05:30pm 11.4 - - - - WNW 80 91 43 49 1003.0 - 0.0
26/05:00pm 11.7 - - - - WNW 83 95 45 51 1002.8 - 0.0
26/04:30pm 12.1 - - - - WNW 78 91 42 49 1002.1 - 0.0
26/04:00pm 12.6 - - - - WNW 78 89 42 48 1001.8 - 0.0
26/03:30pm 12.7 - - - - WNW 74 85 40 46 1002.0 - 0.0
26/03:00pm 12.9 - - - - WNW 70 78 38 42 1001.8 1001.7 0.0
26/02:30pm 12.9 - - - - WNW 72 83 39 45 1002.0 - 0.0
26/02:00pm 12.2 - - - - WNW 70 82 38 44 1001.6 - 0.0
26/01:30pm 11.5 - - - - WNW 69 83 37 45 1001.1 - 0.0
26/01:28pm 11.6 - - - - WNW 65 83 35 45 1001.1 - 0.0
26/01:00pm 11.8 - - - - WNW 65 74 35 40 1000.8 - 0.0
26/12:30pm 11.6 - - - - W 57 69 31 37 1000.8 - 0.0
26/12:00pm 11.9 - - - - W 56 65 30 35 1000.3 1000.2 0.0
26/11:30am 11.7 - - - - W 48 61 26 33 999.9 - 0.0
26/11:00am 12.1 - - - - W 48 61 26 33 999.2 - 0.0
26/10:30am 12.6 - - - - W 54 65 29 35 998.8 - 0.0
26/10:23am 12.9 - - - - WNW 59 80 32 43 998.4 - 0.0
26/10:00am 13.7 - - - - WNW 69 78 37 42 997.2 - 0.0
26/09:30am 13.6 - - - - NW 65 74 35 40 996.7 - 0.0
26/09:00am 13.5 - - - - NW 44 63 24 34 996.8 996.6 7.4
26/08:41am 13.2 - - - - NNW 35 54 19 29 997.1 - 7.4
26/08:30am 13.1 - - - - NW 35 46 19 25 997.1 - 7.4
26/08:00am 13.0 - - - - NW 33 43 18 23 996.9 - 7.4
26/07:30am 12.6 - - - - NW 33 43 18 23 996.8 - 7.4
26/07:00am 12.5 - - - - NW 32 44 17 24 996.8 - 7.4
26/06:30am 12.6 - - - - NW 37 46 20 25 996.5 - 7.4
26/06:00am 12.9 - - - - NW 37 46 20 25 996.4 996.2 7.4
26/05:30am 12.9 - - - - NW 33 39 18 21 996.3 - 7.4
26/05:00am 12.7 - - - - NW 35 43 19 23 996.1 - 7.4
26/04:30am 12.8 - - - - NW 39 44 21 24 995.8 - 7.4
26/04:00am 12.6 - - - - NW 32 39 17 21 996.0 - 7.4
26/03:30am 12.5 - - - - NW 43 48 23 26 995.8 - 7.4
26/03:00am 12.3 - - - - NW 46 52 25 28 995.8 995.6 7.4
26/02:30am 12.5 - - - - WNW 50 56 27 30 996.1 - 7.4
26/02:00am 12.7 - - - - WNW 52 61 28 33 996.1 - 7.4
26/01:30am 12.8 - - - - WNW 43 50 23 27 996.4 - 7.2
26/01:00am 12.8 - - - - WNW 44 50 24 27 996.6 - 6.6
26/12:30am 13.1 - - - - WNW 46 52 25 28 996.8 - 6.4
26/12:00am 13.1 - - - - NW 32 37 17 20 996.8 996.6 5.8
 
Date/Time
EDT
Temp
°C
App
Temp
°C
Dew
Point
°C
Rel
Hum
%
Delta-T
°C
Wind Press
QNH
hPa
Press
MSL
hPa
Rain since
9am
mm
Dir  Spd
km/h
Gust
km/h
Spd
kts
Gust
kts
25/11:30pm 13.1 - - - - WNW 33 39 18 21 997.1 - 5.6
25/11:00pm 13.2 - - - - NW 32 41 17 22 997.2 - 5.6
25/10:30pm 13.2 - - - - WNW 54 63 29 34 996.2 - 5.6
25/10:00pm 13.5 - - - - WNW 57 65 31 35 996.1 - 5.4
25/09:30pm 13.5 - - - - WNW 57 63 31 34 995.6 - 5.4
25/09:00pm 13.8 - - - - NW 50 56 27 30 995.3 995.1 5.2
25/08:30pm 14.4 - - - - NW 61 70 33 38 994.7 - 4.8
25/08:00pm 14.9 - - - - WNW 57 59 31 32 995.0 - 2.8
25/07:51pm 15.5 - - - - WNW 37 48 20 26 995.4 - 2.4
25/07:30pm 16.7 - - - - NNW 33 39 18 21 994.9 - 1.6
25/07:00pm 17.1 - - - - NNW 37 46 20 25 994.7 - 1.4
25/06:30pm 17.3 - - - - NNW 37 44 20 24 994.5 - 1.0
25/06:00pm 17.2 - - - - NNW 39 50 21 27 994.4 994.3 0.8
25/05:30pm 16.9 - - - - NNW 37 43 20 23 994.9 - 0.6
25/05:00pm 17.1 - - - - NNW 35 44 19 24 995.0 - 0.6
25/04:30pm 17.1 - - - - NNW 32 41 17 22 995.5 - 0.6
25/04:00pm 16.8 - - - - NNW 37 44 20 24 996.3 - 0.4

Other formats

Comma delimited format used in spreadsheet applications
http://www.bom.gov.au/fwo/IDT60801/IDT60801.94962.axf

JavaScript Object Notation format (JSON) in row-major order
http://www.bom.gov.au/fwo/IDT60801/IDT60801.94962.json

Data quality

Most of these data are generated automatically and are frequently updated. Quality checks on data are not normally performed. It is possible for incorrect values to appear. Refer to information at About Latest Weather Observations and please check the disclaimer before using these data.